Maersk Nimes — VRFO7 — position and weather

sailwx.info

Track history (hours):
 
Tides and Currents Weather Stations Pressure Air Temp Water Temp Dewpoint Dewpoint Depression Visibility Wind Speed Wind Dir Waves Ship Positions

Maersk Nimes

Last reported at 2016-Jul-28 22:33 UTC. Time now 2016-Jul-29 03:58 UTC.
Position N 55°53' E 017°29'.

Length 210 m; draft 9.9 m.

Type: Cargo ship. MMSI: 477559200.

Date/timePositionNaut miles runAvg speedWind from/ knotsBaromVisibWave heightAir tempDewpointWater temp
2016-Jul-28 22:33N 55°53' E 017°29'7013.3
2016-Jul-28 17:16N 55°36' E 015°28'913.2
2016-Jul-28 16:34N 55°32' E 015°13'1313.3
2016-Jul-28 15:34N 55°26' E 014°52'1313.2
2016-Jul-28 14:33N 55°18' E 014°33'1515.0
2016-Jul-28 13:33N 55°07' E 014°16'1817.7
2016-Jul-28 12:33N 54°57' E 013°51'1918.1
2016-Jul-28 11:31N 54°52' E 013°19'1818.3
2016-Jul-28 10:33N 54°46' E 012°50'2117.3
2016-Jul-28 09:20N 54°35' E 012°19'1114.8
2016-Jul-28 08:33N 54°25' E 012°09'1817.9
2016-Jul-28 07:33N 54°27' E 011°39'1817.9
2016-Jul-28 06:33N 54°35' E 011°10'1616.4
2016-Jul-28 05:33N 54°44' E 010°46'1515.3
2016-Jul-28 04:34N 54°58' E 010°57'1515.4
2016-Jul-28 03:33N 55°12' E 011°06'5714.3
2016-Jul-27 23:33N 56°09' E 011°14'1917.5
2016-Jul-27 22:27N 56°26' E 011°32'1517.3
2016-Jul-27 21:33N 56°40' E 011°46'1514.8
2016-Jul-27 20:33N 56°54' E 011°46'1717.0
2016-Jul-27 19:33N 57°10' E 011°36'1717.0
2016-Jul-27 18:34N 57°26' E 011°26'1716.7
2016-Jul-27 17:33N 57°38' E 011°03'1616.2
2016-Jul-27 16:34N 57°48' E 010°40'1413.9
2016-Jul-27 15:32N 57°48' E 010°13'19516.1
2016-Jul-27 03:26N 55°15' E 006°33'1618.1
2016-Jul-27 02:33N 54°59' E 006°37'1716.9
2016-Jul-27 01:33N 54°46' E 006°56'1717.1
2016-Jul-27 00:33N 54°32' E 007°12'1717.4
2016-Jul-26 23:33N 54°16' E 007°25'1817.5
2016-Jul-26 22:33N 54°01' E 007°39'1413.5
2016-Jul-26 21:33N 53°52' E 007°56'1616.1
2016-Jul-26 20:34N 53°43' E 008°18'1110.1
2016-Jul-26 19:31N 53°35' E 008°31'0 0.0
2016-Jul-26 07:13N 53°35' E 008°31'0 0.0
2016-Jul-26 06:28N 53°35' E 008°31'0 0.0
2016-Jul-26 05:25N 53°35' E 008°31'0 0.0
2016-Jul-26 04:31N 53°35' E 008°31'0 0.0
2016-Jul-26 03:28N 53°35' E 008°31'0 0.0
2016-Jul-26 02:19N 53°35' E 008°31'0 0.0
2016-Jul-26 01:22N 53°35' E 008°31'0 0.0
2016-Jul-26 00:04N 53°35' E 008°31'0 0.0
2016-Jul-25 23:31N 53°35' E 008°31'0 0.0
2016-Jul-25 22:28N 53°35' E 008°31'0 0.0
2016-Jul-25 20:16N 53°35' E 008°31'4 5.5
2016-Jul-25 19:33N 53°38' E 008°26'1414.5
2016-Jul-25 18:33N 53°48' E 008°08'1211.7
2016-Jul-25 17:33N 53°55' E 007°52'0 0.1
2016-Jul-25 16:31N 53°55' E 007°52'0 0.1
2016-Jul-25 15:31N 53°55' E 007°52'0 0.0
2016-Jul-25 14:28N 53°55' E 007°52'0 0.0
2016-Jul-25 13:31N 53°55' E 007°52'0 0.0
2016-Jul-25 12:31N 53°55' E 007°52'0 0.0
2016-Jul-25 11:31N 53°55' E 007°52'0 0.0
2016-Jul-25 10:28N 53°55' E 007°52'0 0.1
2016-Jul-25 09:31N 53°55' E 007°52'0 0.1
2016-Jul-25 08:31N 53°55' E 007°52'0 0.1
2016-Jul-25 07:22N 53°55' E 007°52'0 0.0
2016-Jul-25 06:31N 53°55' E 007°52'9 8.9
2016-Jul-25 05:34N 54°00' E 008°03'1515.0
2016-Jul-25 04:33N 53°59' E 008°28'1413.8
2016-Jul-25 03:33N 53°51' E 008°47'1313.0
2016-Jul-25 02:33N 53°53' E 009°09'9 9.4
2016-Jul-25 01:33N 53°48' E 009°23'1313.3
2016-Jul-25 00:34N 53°37' E 009°34'1212.0
2016-Jul-24 23:33N 53°33' E 009°53'4 3.8
2016-Jul-24 22:31N 53°32' E 009°60'0 0.0
2016-Jul-24 21:31N 53°32' E 009°60'0 0.0
2016-Jul-24 20:31N 53°32' E 009°60'0 0.0
2016-Jul-24 19:31N 53°32' E 009°60'0 0.0
2016-Jul-24 18:31N 53°32' E 009°60'0 0.0
2016-Jul-24 17:31N 53°32' E 009°60'0 0.0
2016-Jul-24 16:31N 53°32' E 009°60'0 0.0
2016-Jul-24 15:31N 53°32' E 009°60'0 0.0
2016-Jul-24 14:31N 53°32' E 009°60'0 0.0
2016-Jul-24 13:31N 53°32' E 009°60'0 0.0
2016-Jul-24 12:31N 53°32' E 009°60'0 0.0
2016-Jul-24 11:31N 53°32' E 009°60'0 0.0
2016-Jul-24 10:31N 53°32' E 009°60'0 0.4
2016-Jul-24 09:34N 53°32' E 009°59'7 7.1
2016-Jul-24 08:34N 53°33' E 009°47'1010.1
2016-Jul-24 07:34N 53°38' E 009°32'1211.5
2016-Jul-24 06:34N 53°48' E 009°23'1110.8
2016-Jul-24 05:33N 53°53' E 009°06'1312.8
2016-Jul-24 04:33N 53°52' E 008°45'1414.4
2016-Jul-24 03:34N 53°59' E 008°24'1111.4
2016-Jul-24 02:33N 53°59' E 008°04'1110.7
2016-Jul-24 01:33N 53°57' E 007°47'1818.1
2016-Jul-24 00:33N 53°53' E 007°17'1818.3
2016-Jul-23 23:33N 53°49' E 006°47'1818.5
2016-Jul-23 22:33N 53°43' E 006°17'1818.4
2016-Jul-23 21:33N 53°38' E 005°47'1818.4
2016-Jul-23 20:33N 53°33' E 005°17'1918.5
2016-Jul-23 19:33N 53°27' E 004°48'2018.8
2016-Jul-23 18:31N 53°10' E 004°30'1819.1
2016-Jul-23 17:33N 52°54' E 004°16'1918.7
2016-Jul-23 16:33N 52°38' E 004°00'1918.5
2016-Jul-23 15:33N 52°20' E 003°52'1716.9
2016-Jul-23 14:33N 52°03' E 003°53'9 8.7
2016-Jul-23 13:33N 51°58' E 004°04'2 2.3
2016-Jul-23 12:33N 51°57' E 004°00'0 0.1
2016-Jul-23 11:33N 51°57' E 004°00'0 0.0
2016-Jul-23 10:33N 51°57' E 004°00'0 0.0
2016-Jul-23 09:30N 51°57' E 004°00'0 0.0
2016-Jul-23 08:33N 51°57' E 004°00'0 0.0
2016-Jul-23 07:30N 51°57' E 004°00'0 0.0
2016-Jul-23 06:33N 51°57' E 004°00'0 0.0
2016-Jul-23 04:33N 51°57' E 004°00'0 0.0
2016-Jul-23 03:30N 51°57' E 004°00'0 0.0
2016-Jul-23 02:33N 51°57' E 004°00'0 0.0
2016-Jul-23 01:33N 51°57' E 004°00'0 0.0
2016-Jul-23 00:33N 51°57' E 004°00'2 1.7
2016-Jul-22 23:33N 51°58' E 004°03'4 3.8
2016-Jul-22 22:33N 51°60' E 003°57'8 7.9
2016-Jul-22 21:33N 51°57' E 003°45'0 0.1
2016-Jul-22 20:31N 51°57' E 003°45'0 0.0
2016-Jul-22 19:28N 51°57' E 003°45'0 0.2
2016-Jul-22 18:31N 51°57' E 003°45'0 0.0
2016-Jul-22 17:31N 51°57' E 003°45'0 0.0
2016-Jul-22 16:28N 51°57' E 003°45'0 0.0
2016-Jul-22 15:28N 51°57' E 003°45'0 0.0
2016-Jul-22 14:28N 51°57' E 003°45'3 3.7
2016-Jul-22 13:33N 51°59' E 003°40'5 5.3
2016-Jul-22 12:33N 51°57' E 003°32'5 4.7
2016-Jul-22 11:30N 51°55' E 003°25'5 4.9
2016-Jul-22 10:32N 51°54' E 003°17'5 4.9
2016-Jul-22 09:27N 51°52' E 003°09'7 8.2
2016-Jul-22 08:33N 51°52' E 002°57'4 4.2
2016-Jul-22 07:34N 51°53' E 002°51'2 0.9
2016-Jul-22 05:34N 51°53' E 002°53'0 0.4
2016-Jul-22 04:33N 51°53' E 002°53'2 1.8
2016-Jul-22 03:33N 51°52' E 002°50'1 0.5
2016-Jul-22 02:34N 51°52' E 002°50'3 3.2
2016-Jul-22 01:33N 51°50' E 002°47'5 5.3
2016-Jul-22 00:34N 51°47' E 002°40'8 8.1
2016-Jul-21 23:34N 51°41' E 002°31'1010.1
2016-Jul-21 22:33N 51°34' E 002°19'9 9.4
2016-Jul-21 21:33N 51°27' E 002°10'1010.0
2016-Jul-21 20:34N 51°17' E 002°07'1312.8
2016-Jul-21 19:33N 51°09' E 001°51'1212.1
2016-Jul-21 18:33N 51°01' E 001°37'1313.0
2016-Jul-21 17:33N 50°50' E 001°26'1313.4
2016-Jul-21 16:33N 50°39' E 001°14'1713.8
2016-Jul-21 15:18N 50°29' E 000°52'1013.9
2016-Jul-21 14:33N 50°26' E 000°36'1413.9
2016-Jul-21 13:33N 50°22' E 000°15'1414.2
2016-Jul-21 12:34N 50°19' W 000°06'1514.9
2016-Jul-21 11:34N 50°16' W 000°29'1816.4
2016-Jul-21 10:29N 50°13' W 000°56'2017.8
2016-Jul-21 09:21N 50°06' W 001°26'1818.8
2016-Jul-21 08:25N 50°00' W 001°52'1618.8
2016-Jul-21 07:33N 49°57' W 002°17'1717.4
2016-Jul-21 06:33N 49°51' W 002°42'1716.6
2016-Jul-21 05:34N 49°47' W 003°07'1616.0
2016-Jul-21 04:33N 49°44' W 003°31'1715.5
2016-Jul-21 03:27N 49°40' W 003°57'1415.2
2016-Jul-21 02:33N 49°37' W 004°18'1514.9
2016-Jul-21 01:33N 49°34' W 004°40'1714.6
2016-Jul-21 00:24N 49°30' W 005°05'1214.4
2016-Jul-20 23:34N 49°27' W 005°23'1414.2
2016-Jul-20 22:33N 49°24' W 005°45'3314.7
2016-Jul-20 20:21N 49°19' W 006°34'22916.0
2016-Jul-20 06:00N 49°06' W 012°24'39916.6 270 / 151016.010.8 1.017.011.518.0
2016-Jul-19 06:00N 48°00' W 022°18'   290 / 161018.010.8 0.515.011.317.0
Track history (hours):
 
Tides and Currents Weather Stations Pressure Air Temp Water Temp Dewpoint Dewpoint Depression Visibility Wind Speed Wind Dir Waves Ship Positions

Maersk Nimes

Last reported at 2016-Jul-28 22:33 UTC. Time now 2016-Jul-29 03:58 UTC.
Position N 55°53' E 017°29'.

Length 210 m; draft 9.9 m.

Type: Cargo ship. MMSI: 477559200.

Date/timePositionNaut miles runAvg speedWind from/ knotsBaromVisibWave heightAir tempDewpointWater temp
2016-Jul-28 22:33N 55°53' E 017°29'7013.3
2016-Jul-28 17:16N 55°36' E 015°28'913.2
2016-Jul-28 16:34N 55°32' E 015°13'1313.3
2016-Jul-28 15:34N 55°26' E 014°52'1313.2
2016-Jul-28 14:33N 55°18' E 014°33'1515.0
2016-Jul-28 13:33N 55°07' E 014°16'1817.7
2016-Jul-28 12:33N 54°57' E 013°51'1918.1
2016-Jul-28 11:31N 54°52' E 013°19'1818.3
2016-Jul-28 10:33N 54°46' E 012°50'2117.3
2016-Jul-28 09:20N 54°35' E 012°19'1114.8
2016-Jul-28 08:33N 54°25' E 012°09'1817.9
2016-Jul-28 07:33N 54°27' E 011°39'1817.9
2016-Jul-28 06:33N 54°35' E 011°10'1616.4
2016-Jul-28 05:33N 54°44' E 010°46'1515.3
2016-Jul-28 04:34N 54°58' E 010°57'1515.4
2016-Jul-28 03:33N 55°12' E 011°06'5714.3
2016-Jul-27 23:33N 56°09' E 011°14'1917.5
2016-Jul-27 22:27N 56°26' E 011°32'1517.3
2016-Jul-27 21:33N 56°40' E 011°46'1514.8
2016-Jul-27 20:33N 56°54' E 011°46'1717.0
2016-Jul-27 19:33N 57°10' E 011°36'1717.0
2016-Jul-27 18:34N 57°26' E 011°26'1716.7
2016-Jul-27 17:33N 57°38' E 011°03'1616.2
2016-Jul-27 16:34N 57°48' E 010°40'1413.9
2016-Jul-27 15:32N 57°48' E 010°13'19516.1
2016-Jul-27 03:26N 55°15' E 006°33'1618.1
2016-Jul-27 02:33N 54°59' E 006°37'1716.9
2016-Jul-27 01:33N 54°46' E 006°56'1717.1
2016-Jul-27 00:33N 54°32' E 007°12'1717.4
2016-Jul-26 23:33N 54°16' E 007°25'1817.5
2016-Jul-26 22:33N 54°01' E 007°39'1413.5
2016-Jul-26 21:33N 53°52' E 007°56'1616.1
2016-Jul-26 20:34N 53°43' E 008°18'1110.1
2016-Jul-26 19:31N 53°35' E 008°31'0 0.0
2016-Jul-26 07:13N 53°35' E 008°31'0 0.0
2016-Jul-26 06:28N 53°35' E 008°31'0 0.0
2016-Jul-26 05:25N 53°35' E 008°31'0 0.0
2016-Jul-26 04:31N 53°35' E 008°31'0 0.0
2016-Jul-26 03:28N 53°35' E 008°31'0 0.0
2016-Jul-26 02:19N 53°35' E 008°31'0 0.0
2016-Jul-26 01:22N 53°35' E 008°31'0 0.0
2016-Jul-26 00:04N 53°35' E 008°31'0 0.0
2016-Jul-25 23:31N 53°35' E 008°31'0 0.0
2016-Jul-25 22:28N 53°35' E 008°31'0 0.0
2016-Jul-25 20:16N 53°35' E 008°31'4 5.5
2016-Jul-25 19:33N 53°38' E 008°26'1414.5
2016-Jul-25 18:33N 53°48' E 008°08'1211.7
2016-Jul-25 17:33N 53°55' E 007°52'0 0.1
2016-Jul-25 16:31N 53°55' E 007°52'0 0.1
2016-Jul-25 15:31N 53°55' E 007°52'0 0.0
2016-Jul-25 14:28N 53°55' E 007°52'0 0.0
2016-Jul-25 13:31N 53°55' E 007°52'0 0.0
2016-Jul-25 12:31N 53°55' E 007°52'0 0.0
2016-Jul-25 11:31N 53°55' E 007°52'0 0.0
2016-Jul-25 10:28N 53°55' E 007°52'0 0.1
2016-Jul-25 09:31N 53°55' E 007°52'0 0.1
2016-Jul-25 08:31N 53°55' E 007°52'0 0.1
2016-Jul-25 07:22N 53°55' E 007°52'0 0.0
2016-Jul-25 06:31N 53°55' E 007°52'9 8.9
2016-Jul-25 05:34N 54°00' E 008°03'1515.0
2016-Jul-25 04:33N 53°59' E 008°28'1413.8
2016-Jul-25 03:33N 53°51' E 008°47'1313.0
2016-Jul-25 02:33N 53°53' E 009°09'9 9.4
2016-Jul-25 01:33N 53°48' E 009°23'1313.3
2016-Jul-25 00:34N 53°37' E 009°34'1212.0
2016-Jul-24 23:33N 53°33' E 009°53'4 3.8
2016-Jul-24 22:31N 53°32' E 009°60'0 0.0
2016-Jul-24 21:31N 53°32' E 009°60'0 0.0
2016-Jul-24 20:31N 53°32' E 009°60'0 0.0
2016-Jul-24 19:31N 53°32' E 009°60'0 0.0
2016-Jul-24 18:31N 53°32' E 009°60'0 0.0
2016-Jul-24 17:31N 53°32' E 009°60'0 0.0
2016-Jul-24 16:31N 53°32' E 009°60'0 0.0
2016-Jul-24 15:31N 53°32' E 009°60'0 0.0
2016-Jul-24 14:31N 53°32' E 009°60'0 0.0
2016-Jul-24 13:31N 53°32' E 009°60'0 0.0
2016-Jul-24 12:31N 53°32' E 009°60'0 0.0
2016-Jul-24 11:31N 53°32' E 009°60'0 0.0
2016-Jul-24 10:31N 53°32' E 009°60'0 0.4
2016-Jul-24 09:34N 53°32' E 009°59'7 7.1
2016-Jul-24 08:34N 53°33' E 009°47'1010.1
2016-Jul-24 07:34N 53°38' E 009°32'1211.5
2016-Jul-24 06:34N 53°48' E 009°23'1110.8
2016-Jul-24 05:33N 53°53' E 009°06'1312.8
2016-Jul-24 04:33N 53°52' E 008°45'1414.4
2016-Jul-24 03:34N 53°59' E 008°24'1111.4
2016-Jul-24 02:33N 53°59' E 008°04'1110.7
2016-Jul-24 01:33N 53°57' E 007°47'1818.1
2016-Jul-24 00:33N 53°53' E 007°17'1818.3
2016-Jul-23 23:33N 53°49' E 006°47'1818.5
2016-Jul-23 22:33N 53°43' E 006°17'1818.4
2016-Jul-23 21:33N 53°38' E 005°47'1818.4
2016-Jul-23 20:33N 53°33' E 005°17'1918.5
2016-Jul-23 19:33N 53°27' E 004°48'2018.8
2016-Jul-23 18:31N 53°10' E 004°30'1819.1
2016-Jul-23 17:33N 52°54' E 004°16'1918.7
2016-Jul-23 16:33N 52°38' E 004°00'1918.5
2016-Jul-23 15:33N 52°20' E 003°52'1716.9
2016-Jul-23 14:33N 52°03' E 003°53'9 8.7
2016-Jul-23 13:33N 51°58' E 004°04'2 2.3
2016-Jul-23 12:33N 51°57' E 004°00'0 0.1
2016-Jul-23 11:33N 51°57' E 004°00'0 0.0
2016-Jul-23 10:33N 51°57' E 004°00'0 0.0
2016-Jul-23 09:30N 51°57' E 004°00'0 0.0
2016-Jul-23 08:33N 51°57' E 004°00'0 0.0
2016-Jul-23 07:30N 51°57' E 004°00'0 0.0
2016-Jul-23 06:33N 51°57' E 004°00'0 0.0
2016-Jul-23 04:33N 51°57' E 004°00'0 0.0
2016-Jul-23 03:30N 51°57' E 004°00'0 0.0
2016-Jul-23 02:33N 51°57' E 004°00'0 0.0
2016-Jul-23 01:33N 51°57' E 004°00'0 0.0
2016-Jul-23 00:33N 51°57' E 004°00'2 1.7
2016-Jul-22 23:33N 51°58' E 004°03'4 3.8
2016-Jul-22 22:33N 51°60' E 003°57'8 7.9
2016-Jul-22 21:33N 51°57' E 003°45'0 0.1
2016-Jul-22 20:31N 51°57' E 003°45'0 0.0
2016-Jul-22 19:28N 51°57' E 003°45'0 0.2
2016-Jul-22 18:31N 51°57' E 003°45'0 0.0
2016-Jul-22 17:31N 51°57' E 003°45'0 0.0
2016-Jul-22 16:28N 51°57' E 003°45'0 0.0
2016-Jul-22 15:28N 51°57' E 003°45'0 0.0
2016-Jul-22 14:28N 51°57' E 003°45'3 3.7
2016-Jul-22 13:33N 51°59' E 003°40'5 5.3
2016-Jul-22 12:33N 51°57' E 003°32'5 4.7
2016-Jul-22 11:30N 51°55' E 003°25'5 4.9
2016-Jul-22 10:32N 51°54' E 003°17'5 4.9
2016-Jul-22 09:27N 51°52' E 003°09'7 8.2
2016-Jul-22 08:33N 51°52' E 002°57'4 4.2
2016-Jul-22 07:34N 51°53' E 002°51'2 0.9
2016-Jul-22 05:34N 51°53' E 002°53'0 0.4
2016-Jul-22 04:33N 51°53' E 002°53'2 1.8
2016-Jul-22 03:33N 51°52' E 002°50'1 0.5
2016-Jul-22 02:34N 51°52' E 002°50'3 3.2
2016-Jul-22 01:33N 51°50' E 002°47'5 5.3
2016-Jul-22 00:34N 51°47' E 002°40'8 8.1
2016-Jul-21 23:34N 51°41' E 002°31'1010.1
2016-Jul-21 22:33N 51°34' E 002°19'9 9.4
2016-Jul-21 21:33N 51°27' E 002°10'1010.0
2016-Jul-21 20:34N 51°17' E 002°07'1312.8
2016-Jul-21 19:33N 51°09' E 001°51'1212.1
2016-Jul-21 18:33N 51°01' E 001°37'1313.0
2016-Jul-21 17:33N 50°50' E 001°26'1313.4
2016-Jul-21 16:33N 50°39' E 001°14'1713.8
2016-Jul-21 15:18N 50°29' E 000°52'1013.9
2016-Jul-21 14:33N 50°26' E 000°36'1413.9
2016-Jul-21 13:33N 50°22' E 000°15'1414.2
2016-Jul-21 12:34N 50°19' W 000°06'1514.9
2016-Jul-21 11:34N 50°16' W 000°29'1816.4
2016-Jul-21 10:29N 50°13' W 000°56'2017.8
2016-Jul-21 09:21N 50°06' W 001°26'1818.8
2016-Jul-21 08:25N 50°00' W 001°52'1618.8
2016-Jul-21 07:33N 49°57' W 002°17'1717.4
2016-Jul-21 06:33N 49°51' W 002°42'1716.6
2016-Jul-21 05:34N 49°47' W 003°07'1616.0
2016-Jul-21 04:33N 49°44' W 003°31'1715.5
2016-Jul-21 03:27N 49°40' W 003°57'1415.2
2016-Jul-21 02:33N 49°37' W 004°18'1514.9
2016-Jul-21 01:33N 49°34' W 004°40'1714.6
2016-Jul-21 00:24N 49°30' W 005°05'1214.4
2016-Jul-20 23:34N 49°27' W 005°23'1414.2
2016-Jul-20 22:33N 49°24' W 005°45'3314.7
2016-Jul-20 20:21N 49°19' W 006°34'22916.0
2016-Jul-20 06:00N 49°06' W 012°24'39916.6 270 / 151016.010.8 1.017.011.518.0
2016-Jul-19 06:00N 48°00' W 022°18'   290 / 161018.010.8 0.515.011.317.0

Dump ship's entire track history